sensor_id;sensor_type;location;lat;lon;timestamp;P1;durP1;ratioP1;P2;durP2;ratioP2
52962;SDS011;38827;53.024;6.596;2023-11-21T00:01:57;24.35;;;8.32;;
52962;SDS011;38827;53.024;6.596;2023-11-21T00:04:23;18.52;;;7.22;;
52962;SDS011;38827;53.024;6.596;2023-11-21T00:07:19;26.65;;;8.02;;
52962;SDS011;38827;53.024;6.596;2023-11-21T00:09:46;26.90;;;8.80;;
52962;SDS011;38827;53.024;6.596;2023-11-21T00:12:12;22.52;;;8.10;;
52962;SDS011;38827;53.024;6.596;2023-11-21T00:14:39;22.90;;;8.77;;
52962;SDS011;38827;53.024;6.596;2023-11-21T00:17:04;25.67;;;8.40;;
52962;SDS011;38827;53.024;6.596;2023-11-21T00:19:31;28.30;;;9.57;;
52962;SDS011;38827;53.024;6.596;2023-11-21T00:22:00;25.63;;;9.77;;
52962;SDS011;38827;53.024;6.596;2023-11-21T00:24:26;31.83;;;9.93;;
52962;SDS011;38827;53.024;6.596;2023-11-21T00:26:52;29.17;;;9.82;;
52962;SDS011;38827;53.024;6.596;2023-11-21T00:29:18;30.92;;;10.27;;
52962;SDS011;38827;53.024;6.596;2023-11-21T00:31:56;28.48;;;9.57;;
52962;SDS011;38827;53.024;6.596;2023-11-21T00:34:21;29.13;;;9.60;;
52962;SDS011;38827;53.024;6.596;2023-11-21T00:36:47;24.63;;;9.43;;
52962;SDS011;38827;53.024;6.596;2023-11-21T00:39:13;29.27;;;10.32;;
52962;SDS011;38827;53.024;6.596;2023-11-21T00:41:38;33.40;;;10.25;;
52962;SDS011;38827;53.024;6.596;2023-11-21T00:44:04;27.85;;;10.25;;
52962;SDS011;38827;53.024;6.596;2023-11-21T00:46:31;24.70;;;9.70;;
52962;SDS011;38827;53.024;6.596;2023-11-21T00:48:57;31.02;;;10.65;;
52962;SDS011;38827;53.024;6.596;2023-11-21T00:51:23;27.58;;;9.75;;
52962;SDS011;38827;53.024;6.596;2023-11-21T00:53:49;32.47;;;10.75;;
52962;SDS011;38827;53.024;6.596;2023-11-21T00:56:15;27.42;;;10.45;;
52962;SDS011;38827;53.024;6.596;2023-11-21T00:58:41;36.83;;;10.73;;
52962;SDS011;38827;53.024;6.596;2023-11-21T01:01:14;32.42;;;12.02;;
52962;SDS011;38827;53.024;6.596;2023-11-21T01:03:40;38.05;;;12.05;;
52962;SDS011;38827;53.024;6.596;2023-11-21T01:06:06;34.85;;;11.20;;
52962;SDS011;38827;53.024;6.596;2023-11-21T01:08:35;36.92;;;11.48;;
52962;SDS011;38827;53.024;6.596;2023-11-21T01:11:01;35.92;;;13.32;;
52962;SDS011;38827;53.024;6.596;2023-11-21T01:13:27;33.93;;;12.13;;
52962;SDS011;38827;53.024;6.596;2023-11-21T01:15:53;33.05;;;12.30;;
52962;SDS011;38827;53.024;6.596;2023-11-21T01:18:19;35.95;;;11.73;;
52962;SDS011;38827;53.024;6.596;2023-11-21T02:04:44;46.33;;;14.57;;
52962;SDS011;38827;53.024;6.596;2023-11-21T02:10:17;42.53;;;15.25;;
52962;SDS011;38827;53.024;6.596;2023-11-21T02:12:47;48.92;;;16.60;;
52962;SDS011;38827;53.024;6.596;2023-11-21T02:15:20;45.05;;;15.77;;
52962;SDS011;38827;53.024;6.596;2023-11-21T02:17:56;47.75;;;16.63;;
52962;SDS011;38827;53.024;6.596;2023-11-21T02:26:09;51.63;;;16.45;;
52962;SDS011;38827;53.024;6.596;2023-11-21T02:28:36;58.17;;;17.30;;
52962;SDS011;38827;53.024;6.596;2023-11-21T02:31:18;55.97;;;16.50;;
52962;SDS011;38827;53.024;6.596;2023-11-21T02:33:47;47.03;;;16.80;;
52962;SDS011;38827;53.024;6.596;2023-11-21T02:39:03;42.92;;;16.50;;
52962;SDS011;38827;53.024;6.596;2023-11-21T02:41:31;54.70;;;17.35;;
52962;SDS011;38827;53.024;6.596;2023-11-21T02:43:57;51.63;;;17.10;;
52962;SDS011;38827;53.024;6.596;2023-11-21T02:46:23;54.92;;;17.13;;
52962;SDS011;38827;53.024;6.596;2023-11-21T02:48:51;56.15;;;16.80;;
52962;SDS011;38827;53.024;6.596;2023-11-21T02:51:19;51.20;;;16.10;;
52962;SDS011;38827;53.024;6.596;2023-11-21T02:53:45;50.33;;;16.92;;
52962;SDS011;38827;53.024;6.596;2023-11-21T02:56:28;45.38;;;15.75;;
52962;SDS011;38827;53.024;6.596;2023-11-21T02:58:57;44.53;;;15.07;;
52962;SDS011;38827;53.024;6.596;2023-11-21T03:01:35;54.40;;;16.58;;
52962;SDS011;38827;53.024;6.596;2023-11-21T03:04:01;52.70;;;15.98;;
52962;SDS011;38827;53.024;6.596;2023-11-21T03:06:36;55.50;;;16.25;;
52962;SDS011;38827;53.024;6.596;2023-11-21T03:09:02;44.17;;;16.25;;
52962;SDS011;38827;53.024;6.596;2023-11-21T03:11:28;51.80;;;17.27;;
52962;SDS011;38827;53.024;6.596;2023-11-21T03:14:08;46.00;;;16.15;;
52962;SDS011;38827;53.024;6.596;2023-11-21T03:16:35;51.88;;;16.73;;
52962;SDS011;38827;53.024;6.596;2023-11-21T03:19:09;52.17;;;16.15;;
52962;SDS011;38827;53.024;6.596;2023-11-21T03:21:34;55.95;;;17.13;;
52962;SDS011;38827;53.024;6.596;2023-11-21T03:24:01;43.58;;;16.88;;
52962;SDS011;38827;53.024;6.596;2023-11-21T03:26:32;48.80;;;16.30;;
52962;SDS011;38827;53.024;6.596;2023-11-21T03:29:04;52.83;;;16.63;;
52962;SDS011;38827;53.024;6.596;2023-11-21T03:31:34;50.80;;;16.90;;
52962;SDS011;38827;53.024;6.596;2023-11-21T03:33:59;56.95;;;16.67;;
52962;SDS011;38827;53.024;6.596;2023-11-21T03:36:25;50.90;;;17.50;;
52962;SDS011;38827;53.024;6.596;2023-11-21T03:38:57;50.83;;;16.88;;
52962;SDS011;38827;53.024;6.596;2023-11-21T03:41:22;49.35;;;17.60;;
52962;SDS011;38827;53.024;6.596;2023-11-21T03:43:48;60.95;;;18.60;;
52962;SDS011;38827;53.024;6.596;2023-11-21T03:46:14;53.83;;;16.60;;
52962;SDS011;38827;53.024;6.596;2023-11-21T03:48:39;54.13;;;17.27;;
52962;SDS011;38827;53.024;6.596;2023-11-21T03:51:05;58.60;;;17.77;;
52962;SDS011;38827;53.024;6.596;2023-11-21T03:53:31;57.60;;;17.85;;
52962;SDS011;38827;53.024;6.596;2023-11-21T03:55:57;59.95;;;17.83;;
52962;SDS011;38827;53.024;6.596;2023-11-21T03:58:23;50.17;;;17.90;;
52962;SDS011;38827;53.024;6.596;2023-11-21T04:00:54;53.42;;;17.40;;
52962;SDS011;38827;53.024;6.596;2023-11-21T04:03:20;55.65;;;18.85;;
52962;SDS011;38827;53.024;6.596;2023-11-21T04:05:46;65.63;;;17.98;;
52962;SDS011;38827;53.024;6.596;2023-11-21T04:08:12;53.67;;;17.13;;
52962;SDS011;38827;53.024;6.596;2023-11-21T04:10:37;49.38;;;17.52;;
52962;SDS011;38827;53.024;6.596;2023-11-21T04:13:05;54.55;;;17.90;;
52962;SDS011;38827;53.024;6.596;2023-11-21T04:15:31;59.38;;;17.90;;
52962;SDS011;38827;53.024;6.596;2023-11-21T04:17:57;55.95;;;17.45;;
52962;SDS011;38827;53.024;6.596;2023-11-21T04:20:23;54.72;;;17.73;;
52962;SDS011;38827;53.024;6.596;2023-11-21T04:22:49;54.53;;;17.10;;
52962;SDS011;38827;53.024;6.596;2023-11-21T04:25:15;64.22;;;17.85;;
52962;SDS011;38827;53.024;6.596;2023-11-21T04:27:41;47.28;;;16.88;;
52962;SDS011;38827;53.024;6.596;2023-11-21T04:30:09;59.72;;;17.83;;
52962;SDS011;38827;53.024;6.596;2023-11-21T04:32:35;60.67;;;17.92;;
52962;SDS011;38827;53.024;6.596;2023-11-21T04:35:01;57.35;;;18.65;;
52962;SDS011;38827;53.024;6.596;2023-11-21T04:37:29;53.60;;;18.50;;
52962;SDS011;38827;53.024;6.596;2023-11-21T04:39:54;44.97;;;18.33;;
52962;SDS011;38827;53.024;6.596;2023-11-21T04:42:20;54.47;;;18.23;;
52962;SDS011;38827;53.024;6.596;2023-11-21T04:44:46;52.33;;;18.05;;
52962;SDS011;38827;53.024;6.596;2023-11-21T04:47:11;49.72;;;18.13;;
52962;SDS011;38827;53.024;6.596;2023-11-21T04:49:37;49.42;;;18.17;;
52962;SDS011;38827;53.024;6.596;2023-11-21T04:52:04;50.88;;;18.67;;
52962;SDS011;38827;53.024;6.596;2023-11-21T04:54:30;55.42;;;20.35;;
52962;SDS011;38827;53.024;6.596;2023-11-21T04:56:56;55.42;;;18.70;;
52962;SDS011;38827;53.024;6.596;2023-11-21T04:59:22;55.45;;;19.17;;
52962;SDS011;38827;53.024;6.596;2023-11-21T05:01:52;48.80;;;17.48;;
52962;SDS011;38827;53.024;6.596;2023-11-21T05:04:18;52.97;;;18.60;;
52962;SDS011;38827;53.024;6.596;2023-11-21T05:06:44;46.45;;;17.85;;
52962;SDS011;38827;53.024;6.596;2023-11-21T05:09:13;50.60;;;18.60;;
52962;SDS011;38827;53.024;6.596;2023-11-21T05:11:40;48.47;;;18.85;;
52962;SDS011;38827;53.024;6.596;2023-11-21T05:14:06;49.58;;;18.75;;
52962;SDS011;38827;53.024;6.596;2023-11-21T05:16:32;41.85;;;16.90;;
52962;SDS011;38827;53.024;6.596;2023-11-21T05:18:58;44.95;;;18.75;;
52962;SDS011;38827;53.024;6.596;2023-11-21T05:21:25;53.60;;;19.90;;
52962;SDS011;38827;53.024;6.596;2023-11-21T05:23:51;47.90;;;19.35;;
52962;SDS011;38827;53.024;6.596;2023-11-21T05:26:17;44.08;;;18.00;;
52962;SDS011;38827;53.024;6.596;2023-11-21T05:28:43;45.17;;;18.63;;
52962;SDS011;38827;53.024;6.596;2023-11-21T05:31:08;49.53;;;19.50;;
52962;SDS011;38827;53.024;6.596;2023-11-21T05:33:35;50.67;;;18.95;;
52962;SDS011;38827;53.024;6.596;2023-11-21T05:36:01;47.28;;;18.10;;
52962;SDS011;38827;53.024;6.596;2023-11-21T05:38:30;38.92;;;16.42;;
52962;SDS011;38827;53.024;6.596;2023-11-21T05:40:56;47.55;;;17.58;;
52962;SDS011;38827;53.024;6.596;2023-11-21T05:43:23;36.35;;;16.33;;
52962;SDS011;38827;53.024;6.596;2023-11-21T05:45:49;48.22;;;18.23;;
52962;SDS011;38827;53.024;6.596;2023-11-21T05:48:15;44.47;;;17.23;;
52962;SDS011;38827;53.024;6.596;2023-11-21T05:50:40;37.50;;;17.23;;
52962;SDS011;38827;53.024;6.596;2023-11-21T05:53:06;43.30;;;17.85;;
52962;SDS011;38827;53.024;6.596;2023-11-21T05:55:32;39.25;;;17.08;;
52962;SDS011;38827;53.024;6.596;2023-11-21T05:57:58;45.72;;;17.20;;
52962;SDS011;38827;53.024;6.596;2023-11-21T06:00:23;39.80;;;16.92;;
52962;SDS011;38827;53.024;6.596;2023-11-21T06:02:50;46.67;;;17.40;;
52962;SDS011;38827;53.024;6.596;2023-11-21T06:05:19;45.35;;;17.02;;
52962;SDS011;38827;53.024;6.596;2023-11-21T06:07:48;42.03;;;16.35;;
52962;SDS011;38827;53.024;6.596;2023-11-21T06:10:15;37.92;;;16.45;;
52962;SDS011;38827;53.024;6.596;2023-11-21T06:12:43;32.60;;;14.27;;
52962;SDS011;38827;53.024;6.596;2023-11-21T06:15:09;34.47;;;14.95;;
52962;SDS011;38827;53.024;6.596;2023-11-21T06:17:41;38.30;;;14.52;;
52962;SDS011;38827;53.024;6.596;2023-11-21T06:20:11;30.38;;;13.27;;
52962;SDS011;38827;53.024;6.596;2023-11-21T06:22:40;35.42;;;13.80;;
52962;SDS011;38827;53.024;6.596;2023-11-21T06:25:12;28.40;;;12.48;;
52962;SDS011;38827;53.024;6.596;2023-11-21T06:27:39;28.45;;;11.63;;
52962;SDS011;38827;53.024;6.596;2023-11-21T06:30:10;23.08;;;10.63;;
52962;SDS011;38827;53.024;6.596;2023-11-21T06:32:37;23.58;;;10.10;;
52962;SDS011;38827;53.024;6.596;2023-11-21T06:35:03;22.52;;;10.27;;
52962;SDS011;38827;53.024;6.596;2023-11-21T06:37:33;21.63;;;9.20;;
52962;SDS011;38827;53.024;6.596;2023-11-21T06:39:59;20.38;;;9.75;;
52962;SDS011;38827;53.024;6.596;2023-11-21T06:42:31;20.52;;;9.43;;
52962;SDS011;38827;53.024;6.596;2023-11-21T06:54:21;20.63;;;10.43;;
52962;SDS011;38827;53.024;6.596;2023-11-21T07:10:49;22.05;;;11.38;;
52962;SDS011;38827;53.024;6.596;2023-11-21T07:13:14;22.73;;;11.70;;
52962;SDS011;38827;53.024;6.596;2023-11-21T07:15:40;18.33;;;10.73;;
52962;SDS011;38827;53.024;6.596;2023-11-21T07:18:06;21.52;;;11.40;;
52962;SDS011;38827;53.024;6.596;2023-11-21T07:20:35;23.15;;;12.13;;
52962;SDS011;38827;53.024;6.596;2023-11-21T08:01:57;26.33;;;13.32;;
52962;SDS011;38827;53.024;6.596;2023-11-21T08:04:26;25.48;;;13.30;;
52962;SDS011;38827;53.024;6.596;2023-11-21T08:09:55;22.73;;;12.20;;
52962;SDS011;38827;53.024;6.596;2023-11-21T08:21:08;20.85;;;12.85;;
52962;SDS011;38827;53.024;6.596;2023-11-21T08:23:40;21.17;;;11.82;;
52962;SDS011;38827;53.024;6.596;2023-11-21T08:29:24;23.27;;;13.55;;
52962;SDS011;38827;53.024;6.596;2023-11-21T08:31:50;29.33;;;15.82;;
52962;SDS011;38827;53.024;6.596;2023-11-21T08:34:42;37.25;;;19.40;;
52962;SDS011;38827;53.024;6.596;2023-11-21T08:37:14;30.48;;;18.58;;
52962;SDS011;38827;53.024;6.596;2023-11-21T08:39:44;31.65;;;18.80;;
52962;SDS011;38827;53.024;6.596;2023-11-21T08:42:12;29.60;;;18.40;;
52962;SDS011;38827;53.024;6.596;2023-11-21T08:44:42;27.75;;;17.52;;
52962;SDS011;38827;53.024;6.596;2023-11-21T08:49:51;29.50;;;18.45;;
52962;SDS011;38827;53.024;6.596;2023-11-21T08:55:25;29.27;;;17.58;;
52962;SDS011;38827;53.024;6.596;2023-11-21T08:57:59;28.73;;;17.58;;
52962;SDS011;38827;53.024;6.596;2023-11-21T09:00:30;27.17;;;17.48;;
52962;SDS011;38827;53.024;6.596;2023-11-21T09:02:57;25.17;;;16.77;;
52962;SDS011;38827;53.024;6.596;2023-11-21T09:05:22;24.30;;;16.85;;
52962;SDS011;38827;53.024;6.596;2023-11-21T09:07:54;25.75;;;17.52;;
52962;SDS011;38827;53.024;6.596;2023-11-21T09:10:20;25.50;;;17.25;;
52962;SDS011;38827;53.024;6.596;2023-11-21T09:12:48;24.33;;;17.35;;
52962;SDS011;38827;53.024;6.596;2023-11-21T09:15:14;24.73;;;18.33;;
52962;SDS011;38827;53.024;6.596;2023-11-21T09:17:43;27.38;;;18.85;;
52962;SDS011;38827;53.024;6.596;2023-11-21T09:20:16;25.80;;;18.77;;
52962;SDS011;38827;53.024;6.596;2023-11-21T09:22:42;27.50;;;18.40;;
52962;SDS011;38827;53.024;6.596;2023-11-21T09:25:10;26.85;;;19.05;;
52962;SDS011;38827;53.024;6.596;2023-11-21T09:27:36;31.00;;;20.07;;
52962;SDS011;38827;53.024;6.596;2023-11-21T09:30:07;27.30;;;19.70;;
52962;SDS011;38827;53.024;6.596;2023-11-21T09:32:37;27.15;;;19.00;;
52962;SDS011;38827;53.024;6.596;2023-11-21T09:35:06;26.10;;;18.63;;
52962;SDS011;38827;53.024;6.596;2023-11-21T09:37:41;25.65;;;18.05;;
52962;SDS011;38827;53.024;6.596;2023-11-21T09:40:17;26.92;;;19.13;;
52962;SDS011;38827;53.024;6.596;2023-11-21T09:43:39;26.13;;;18.48;;
52962;SDS011;38827;53.024;6.596;2023-11-21T09:46:05;25.95;;;18.63;;
52962;SDS011;38827;53.024;6.596;2023-11-21T09:48:35;28.55;;;18.58;;
52962;SDS011;38827;53.024;6.596;2023-11-21T09:51:03;24.63;;;17.73;;
52962;SDS011;38827;53.024;6.596;2023-11-21T09:53:30;22.05;;;16.42;;
52962;SDS011;38827;53.024;6.596;2023-11-21T09:56:16;24.35;;;16.95;;
52962;SDS011;38827;53.024;6.596;2023-11-21T09:58:51;23.95;;;16.40;;
52962;SDS011;38827;53.024;6.596;2023-11-21T10:04:08;20.75;;;15.80;;
52962;SDS011;38827;53.024;6.596;2023-11-21T10:06:41;21.38;;;14.63;;
52962;SDS011;38827;53.024;6.596;2023-11-21T10:09:13;23.20;;;15.75;;
52962;SDS011;38827;53.024;6.596;2023-11-21T10:11:41;22.23;;;15.68;;
52962;SDS011;38827;53.024;6.596;2023-11-21T10:14:10;18.98;;;14.65;;
52962;SDS011;38827;53.024;6.596;2023-11-21T10:16:38;20.15;;;14.30;;
52962;SDS011;38827;53.024;6.596;2023-11-21T10:19:04;20.40;;;14.23;;
52962;SDS011;38827;53.024;6.596;2023-11-21T10:21:34;16.58;;;12.80;;
52962;SDS011;38827;53.024;6.596;2023-11-21T10:24:03;16.52;;;12.63;;
52962;SDS011;38827;53.024;6.596;2023-11-21T10:26:31;17.70;;;12.93;;
52962;SDS011;38827;53.024;6.596;2023-11-21T10:34:55;13.88;;;10.93;;
52962;SDS011;38827;53.024;6.596;2023-11-21T10:43:47;14.38;;;9.27;;
52962;SDS011;38827;53.024;6.596;2023-11-21T10:46:18;11.50;;;8.52;;
52962;SDS011;38827;53.024;6.596;2023-11-21T10:48:44;10.73;;;7.90;;
52962;SDS011;38827;53.024;6.596;2023-11-21T10:51:09;10.13;;;7.55;;
52962;SDS011;38827;53.024;6.596;2023-11-21T10:53:41;9.30;;;7.28;;
52962;SDS011;38827;53.024;6.596;2023-11-21T10:56:08;9.32;;;7.68;;
52962;SDS011;38827;53.024;6.596;2023-11-21T10:58:51;9.50;;;6.97;;
52962;SDS011;38827;53.024;6.596;2023-11-21T11:04:29;9.52;;;6.60;;
52962;SDS011;38827;53.024;6.596;2023-11-21T11:07:01;8.68;;;6.93;;
52962;SDS011;38827;53.024;6.596;2023-11-21T11:09:28;9.02;;;6.65;;
52962;SDS011;38827;53.024;6.596;2023-11-21T11:17:30;8.75;;;6.90;;
52962;SDS011;38827;53.024;6.596;2023-11-21T11:23:46;9.30;;;7.43;;
52962;SDS011;38827;53.024;6.596;2023-11-21T11:37:42;9.52;;;6.75;;
52962;SDS011;38827;53.024;6.596;2023-11-21T12:01:45;9.13;;;6.32;;
52962;SDS011;38827;53.024;6.596;2023-11-21T12:13:03;8.15;;;5.47;;
52962;SDS011;38827;53.024;6.596;2023-11-21T12:15:33;10.88;;;6.70;;
52962;SDS011;38827;53.024;6.596;2023-11-21T12:18:12;7.63;;;6.35;;
52962;SDS011;38827;53.024;6.596;2023-11-21T12:20:38;7.45;;;5.90;;
52962;SDS011;38827;53.024;6.596;2023-11-21T13:19:35;6.35;;;5.28;;
52962;SDS011;38827;53.024;6.596;2023-11-21T13:22:14;8.20;;;5.55;;
52962;SDS011;38827;53.024;6.596;2023-11-21T13:24:40;7.60;;;5.95;;
52962;SDS011;38827;53.024;6.596;2023-11-21T13:29:55;7.22;;;5.50;;
52962;SDS011;38827;53.024;6.596;2023-11-21T13:32:26;8.20;;;5.60;;
52962;SDS011;38827;53.024;6.596;2023-11-21T13:47:27;6.53;;;5.60;;
52962;SDS011;38827;53.024;6.596;2023-11-21T13:50:45;9.73;;;6.00;;
52962;SDS011;38827;53.024;6.596;2023-11-21T13:56:29;6.38;;;5.38;;
52962;SDS011;38827;53.024;6.596;2023-11-21T13:58:54;7.05;;;5.38;;
52962;SDS011;38827;53.024;6.596;2023-11-21T14:01:33;8.32;;;5.40;;
52962;SDS011;38827;53.024;6.596;2023-11-21T14:04:53;8.10;;;5.50;;
52962;SDS011;38827;53.024;6.596;2023-11-21T14:10:55;8.35;;;5.63;;
52962;SDS011;38827;53.024;6.596;2023-11-21T14:23:57;8.07;;;5.43;;
52962;SDS011;38827;53.024;6.596;2023-11-21T14:32:15;8.32;;;5.72;;
52962;SDS011;38827;53.024;6.596;2023-11-21T14:34:50;8.05;;;5.90;;
52962;SDS011;38827;53.024;6.596;2023-11-21T14:37:22;7.53;;;5.60;;
52962;SDS011;38827;53.024;6.596;2023-11-21T14:39:48;9.23;;;5.30;;
52962;SDS011;38827;53.024;6.596;2023-11-21T14:42:20;8.33;;;5.77;;
52962;SDS011;38827;53.024;6.596;2023-11-21T14:47:51;8.15;;;5.25;;
52962;SDS011;38827;53.024;6.596;2023-11-21T14:54:45;9.25;;;5.78;;
52962;SDS011;38827;53.024;6.596;2023-11-21T15:01:20;7.57;;;4.93;;
52962;SDS011;38827;53.024;6.596;2023-11-21T15:25:17;6.80;;;4.50;;
52962;SDS011;38827;53.024;6.596;2023-11-21T15:27:43;15.90;;;8.88;;
52962;SDS011;38827;53.024;6.596;2023-11-21T15:30:09;9.32;;;4.70;;
52962;SDS011;38827;53.024;6.596;2023-11-21T15:32:38;5.72;;;4.70;;
52962;SDS011;38827;53.024;6.596;2023-11-21T15:35:07;7.30;;;4.88;;
52962;SDS011;38827;53.024;6.596;2023-11-21T15:40:51;5.60;;;3.97;;
52962;SDS011;38827;53.024;6.596;2023-11-21T15:43:26;6.57;;;3.92;;
52962;SDS011;38827;53.024;6.596;2023-11-21T15:46:05;8.02;;;4.70;;
52962;SDS011;38827;53.024;6.596;2023-11-21T15:48:57;7.97;;;4.05;;
52962;SDS011;38827;53.024;6.596;2023-11-21T15:51:26;5.43;;;3.63;;
52962;SDS011;38827;53.024;6.596;2023-11-21T15:53:56;5.60;;;4.10;;
52962;SDS011;38827;53.024;6.596;2023-11-21T15:56:41;5.00;;;4.40;;
52962;SDS011;38827;53.024;6.596;2023-11-21T15:59:07;8.80;;;4.68;;
52962;SDS011;38827;53.024;6.596;2023-11-21T16:01:44;7.10;;;4.72;;
52962;SDS011;38827;53.024;6.596;2023-11-21T16:04:21;8.00;;;4.10;;
52962;SDS011;38827;53.024;6.596;2023-11-21T16:07:00;6.70;;;4.18;;
52962;SDS011;38827;53.024;6.596;2023-11-21T16:09:33;6.30;;;4.38;;
52962;SDS011;38827;53.024;6.596;2023-11-21T16:12:02;7.72;;;4.40;;
52962;SDS011;38827;53.024;6.596;2023-11-21T16:17:22;6.82;;;4.35;;
52962;SDS011;38827;53.024;6.596;2023-11-21T16:19:54;7.50;;;4.68;;
52962;SDS011;38827;53.024;6.596;2023-11-21T16:22:42;6.45;;;5.38;;
52962;SDS011;38827;53.024;6.596;2023-11-21T16:28:48;8.55;;;5.07;;
52962;SDS011;38827;53.024;6.596;2023-11-21T16:31:23;5.43;;;4.47;;
52962;SDS011;38827;53.024;6.596;2023-11-21T16:34:01;10.52;;;5.20;;
52962;SDS011;38827;53.024;6.596;2023-11-21T16:36:49;6.80;;;4.70;;
52962;SDS011;38827;53.024;6.596;2023-11-21T16:39:16;10.68;;;4.95;;
52962;SDS011;38827;53.024;6.596;2023-11-21T16:41:52;11.05;;;4.60;;
52962;SDS011;38827;53.024;6.596;2023-11-21T16:44:28;9.23;;;7.18;;
52962;SDS011;38827;53.024;6.596;2023-11-21T16:46:58;7.95;;;5.75;;
52962;SDS011;38827;53.024;6.596;2023-11-21T16:52:20;9.82;;;6.57;;
52962;SDS011;38827;53.024;6.596;2023-11-21T17:00:32;9.30;;;5.38;;
52962;SDS011;38827;53.024;6.596;2023-11-21T17:03:32;9.55;;;7.70;;
52962;SDS011;38827;53.024;6.596;2023-11-21T17:06:07;10.55;;;6.07;;
52962;SDS011;38827;53.024;6.596;2023-11-21T17:14:41;24.55;;;15.48;;
52962;SDS011;38827;53.024;6.596;2023-11-21T17:17:39;14.10;;;9.95;;
52962;SDS011;38827;53.024;6.596;2023-11-21T17:20:23;16.15;;;11.88;;
52962;SDS011;38827;53.024;6.596;2023-11-21T17:25:19;11.55;;;7.93;;
52962;SDS011;38827;53.024;6.596;2023-11-21T17:28:04;11.60;;;6.53;;
52962;SDS011;38827;53.024;6.596;2023-11-21T17:30:39;9.95;;;8.07;;
52962;SDS011;38827;53.024;6.596;2023-11-21T17:35:53;13.98;;;10.43;;
52962;SDS011;38827;53.024;6.596;2023-11-21T17:40:54;13.35;;;10.45;;
52962;SDS011;38827;53.024;6.596;2023-11-21T17:43:32;9.98;;;7.63;;
52962;SDS011;38827;53.024;6.596;2023-11-21T17:46:20;9.65;;;7.10;;
52962;SDS011;38827;53.024;6.596;2023-11-21T17:52:07;11.25;;;8.32;;
52962;SDS011;38827;53.024;6.596;2023-11-21T17:54:33;10.30;;;7.80;;
52962;SDS011;38827;53.024;6.596;2023-11-21T18:00:01;10.95;;;8.95;;
52962;SDS011;38827;53.024;6.596;2023-11-21T18:02:30;11.23;;;8.00;;
52962;SDS011;38827;53.024;6.596;2023-11-21T18:07:28;10.65;;;8.13;;
52962;SDS011;38827;53.024;6.596;2023-11-21T18:15:22;10.32;;;8.48;;
52962;SDS011;38827;53.024;6.596;2023-11-21T18:17:48;12.70;;;8.82;;
52962;SDS011;38827;53.024;6.596;2023-11-21T18:20:26;13.93;;;9.77;;
52962;SDS011;38827;53.024;6.596;2023-11-21T18:28:27;17.05;;;11.63;;
52962;SDS011;38827;53.024;6.596;2023-11-21T18:31:05;19.98;;;12.50;;
52962;SDS011;38827;53.024;6.596;2023-11-21T18:33:31;17.55;;;11.60;;
52962;SDS011;38827;53.024;6.596;2023-11-21T18:36:15;18.70;;;12.10;;
52962;SDS011;38827;53.024;6.596;2023-11-21T18:41:50;20.02;;;12.70;;
52962;SDS011;38827;53.024;6.596;2023-11-21T18:44:26;16.63;;;11.90;;
52962;SDS011;38827;53.024;6.596;2023-11-21T18:46:54;15.77;;;10.48;;
52962;SDS011;38827;53.024;6.596;2023-11-21T18:49:29;14.73;;;10.68;;
52962;SDS011;38827;53.024;6.596;2023-11-21T18:57:36;26.88;;;16.73;;
52962;SDS011;38827;53.024;6.596;2023-11-21T19:00:11;18.10;;;12.73;;
52962;SDS011;38827;53.024;6.596;2023-11-21T19:02:39;15.80;;;11.57;;
52962;SDS011;38827;53.024;6.596;2023-11-21T19:05:44;15.77;;;10.48;;
52962;SDS011;38827;53.024;6.596;2023-11-21T19:08:10;16.25;;;10.88;;
52962;SDS011;38827;53.024;6.596;2023-11-21T19:10:41;19.25;;;12.10;;
52962;SDS011;38827;53.024;6.596;2023-11-21T19:13:07;16.33;;;11.30;;
52962;SDS011;38827;53.024;6.596;2023-11-21T19:15:42;16.10;;;12.13;;
52962;SDS011;38827;53.024;6.596;2023-11-21T19:20:59;19.33;;;11.43;;
52962;SDS011;38827;53.024;6.596;2023-11-21T19:23:25;20.90;;;12.88;;
52962;SDS011;38827;53.024;6.596;2023-11-21T19:25:51;15.90;;;11.27;;
52962;SDS011;38827;53.024;6.596;2023-11-21T19:28:28;13.45;;;10.40;;
52962;SDS011;38827;53.024;6.596;2023-11-21T19:30:55;14.65;;;10.50;;
52962;SDS011;38827;53.024;6.596;2023-11-21T19:33:21;16.10;;;10.23;;
52962;SDS011;38827;53.024;6.596;2023-11-21T19:35:55;13.98;;;10.27;;
52962;SDS011;38827;53.024;6.596;2023-11-21T19:38:34;12.80;;;10.23;;
52962;SDS011;38827;53.024;6.596;2023-11-21T19:41:28;15.68;;;10.77;;
52962;SDS011;38827;53.024;6.596;2023-11-21T19:43:57;14.38;;;11.35;;
52962;SDS011;38827;53.024;6.596;2023-11-21T19:46:23;16.30;;;11.20;;
52962;SDS011;38827;53.024;6.596;2023-11-21T19:48:58;19.00;;;13.10;;
52962;SDS011;38827;53.024;6.596;2023-11-21T19:54:48;17.30;;;12.02;;
52962;SDS011;38827;53.024;6.596;2023-11-21T19:57:14;18.90;;;13.55;;
52962;SDS011;38827;53.024;6.596;2023-11-21T20:02:59;10.98;;;9.57;;
52962;SDS011;38827;53.024;6.596;2023-11-21T20:05:25;12.55;;;8.70;;
52962;SDS011;38827;53.024;6.596;2023-11-21T20:07:51;12.98;;;9.82;;
52962;SDS011;38827;53.024;6.596;2023-11-21T20:10:17;13.55;;;8.57;;
52962;SDS011;38827;53.024;6.596;2023-11-21T20:12:46;10.10;;;7.95;;
52962;SDS011;38827;53.024;6.596;2023-11-21T20:15:14;12.73;;;8.13;;
52962;SDS011;38827;53.024;6.596;2023-11-21T20:17:40;10.55;;;7.80;;
52962;SDS011;38827;53.024;6.596;2023-11-21T20:20:20;11.98;;;8.57;;
52962;SDS011;38827;53.024;6.596;2023-11-21T20:22:49;25.70;;;18.25;;
52962;SDS011;38827;53.024;6.596;2023-11-21T20:25:15;19.85;;;13.38;;
52962;SDS011;38827;53.024;6.596;2023-11-21T20:27:49;16.00;;;14.30;;
52962;SDS011;38827;53.024;6.596;2023-11-21T20:30:17;25.48;;;20.13;;
52962;SDS011;38827;53.024;6.596;2023-11-21T20:32:45;24.75;;;18.20;;
52962;SDS011;38827;53.024;6.596;2023-11-21T20:35:17;13.02;;;10.35;;
52962;SDS011;38827;53.024;6.596;2023-11-21T20:37:51;16.15;;;10.95;;
52962;SDS011;38827;53.024;6.596;2023-11-21T20:40:17;13.20;;;10.73;;
52962;SDS011;38827;53.024;6.596;2023-11-21T20:42:59;16.08;;;10.15;;
52962;SDS011;38827;53.024;6.596;2023-11-21T20:45:31;13.90;;;10.95;;
52962;SDS011;38827;53.024;6.596;2023-11-21T20:48:03;15.95;;;11.40;;
52962;SDS011;38827;53.024;6.596;2023-11-21T20:50:29;13.50;;;9.88;;
52962;SDS011;38827;53.024;6.596;2023-11-21T20:52:55;11.75;;;9.20;;
52962;SDS011;38827;53.024;6.596;2023-11-21T20:55:23;12.10;;;8.95;;
52962;SDS011;38827;53.024;6.596;2023-11-21T20:57:48;13.45;;;9.52;;
52962;SDS011;38827;53.024;6.596;2023-11-21T21:00:23;11.60;;;8.90;;
52962;SDS011;38827;53.024;6.596;2023-11-21T21:03:06;15.20;;;11.02;;
52962;SDS011;38827;53.024;6.596;2023-11-21T21:05:33;13.50;;;10.20;;
52962;SDS011;38827;53.024;6.596;2023-11-21T21:08:00;12.43;;;9.20;;
52962;SDS011;38827;53.024;6.596;2023-11-21T21:10:26;13.77;;;8.68;;
52962;SDS011;38827;53.024;6.596;2023-11-21T21:12:52;14.35;;;8.93;;
52962;SDS011;38827;53.024;6.596;2023-11-21T21:15:18;12.10;;;8.60;;
52962;SDS011;38827;53.024;6.596;2023-11-21T21:17:47;13.45;;;9.43;;
52962;SDS011;38827;53.024;6.596;2023-11-21T21:20:15;13.90;;;9.70;;
52962;SDS011;38827;53.024;6.596;2023-11-21T21:22:41;15.77;;;10.05;;
52962;SDS011;38827;53.024;6.596;2023-11-21T21:31:40;11.55;;;8.52;;
52962;SDS011;38827;53.024;6.596;2023-11-21T21:36:42;13.98;;;9.27;;
52962;SDS011;38827;53.024;6.596;2023-11-21T21:42:13;14.55;;;11.75;;
52962;SDS011;38827;53.024;6.596;2023-11-21T21:44:42;15.00;;;10.52;;